Time;durP1;ratioP1;P1;durP2;ratioP2;P2;SDS_P1;SDS_P2;PMS_P1;PMS_P2;Temp;Humidity;BMP_temperature;BMP_pressure;BME280_temperature;BME280_humidity;BME280_pressure;Samples;Min_cycle;Max_cycle;Signal;HPM_P1;HPM_P2
2024/02/16 00:00:16;;;;;;;1.97;1.73;;;13.30;99.90;;;;;;5032794;28;20269;-68
2024/02/16 00:02:42;;;;;;;2.97;1.60;;;13.20;99.90;;;;;;5031561;28;20564;-74
2024/02/16 00:05:11;;;;;;;2.00;1.70;;;13.30;99.90;;;;;;5014889;28;20456;-70
2024/02/16 00:07:37;;;;;;;2.27;1.60;;;13.20;99.90;;;;;;5029939;28;20473;-68
2024/02/16 00:10:06;;;;;;;2.07;1.63;;;13.20;99.90;;;;;;5033715;28;20459;-80
2024/02/16 00:12:33;;;;;;;4.10;1.50;;;13.30;99.90;;;;;;5032458;28;20424;-77
2024/02/16 00:15:00;;;;;;;2.20;1.57;;;13.30;99.90;;;;;;5034664;28;20451;-74
2024/02/16 00:17:29;;;;;;;1.90;1.70;;;13.30;99.90;;;;;;5034568;28;20432;-73
2024/02/16 00:19:56;;;;;;;2.00;1.47;;;13.40;99.90;;;;;;5035635;28;20433;-69
2024/02/16 00:22:21;;;;;;;5.50;1.60;;;13.40;99.90;;;;;;5034739;28;20470;-68
2024/02/16 00:24:50;;;;;;;2.20;2.00;;;13.40;99.90;;;;;;5034834;28;20432;-72
2024/02/16 00:27:16;;;;;;;2.63;1.97;;;13.30;99.90;;;;;;5034416;28;20214;-74
2024/02/16 00:29:42;;;;;;;2.43;1.47;;;13.30;99.90;;;;;;5044030;28;20436;-73
2024/02/16 00:32:08;;;;;;;3.30;1.90;;;13.40;99.90;;;;;;5044494;28;20424;-67
2024/02/16 00:34:37;;;;;;;4.10;1.80;;;13.40;99.90;;;;;;5035416;28;20964;-73
2024/02/16 00:37:09;;;;;;;5.67;3.60;;;13.40;99.90;;;;;;5033175;28;20182;-73
2024/02/16 00:39:36;;;;;;;3.93;1.90;;;13.40;99.90;;;;;;5034956;28;20520;-72
2024/02/16 00:42:03;;;;;;;2.00;1.70;;;13.40;99.90;;;;;;5034260;28;20435;-73
2024/02/16 00:44:28;;;;;;;2.10;1.73;;;13.40;99.90;;;;;;5033988;28;20431;-72
2024/02/16 00:46:54;;;;;;;2.00;1.73;;;13.40;99.90;;;;;;5034208;28;20476;-68
2024/02/16 00:49:20;;;;;;;2.03;1.60;;;13.40;99.90;;;;;;5035374;28;20239;-65
2024/02/16 00:51:46;;;;;;;3.23;1.80;;;13.40;99.90;;;;;;5034442;28;20188;-76
2024/02/16 00:54:12;;;;;;;2.40;2.20;;;13.30;99.90;;;;;;5033811;28;20214;-78
2024/02/16 00:56:38;;;;;;;2.13;1.50;;;13.40;99.90;;;;;;5033816;28;20519;-71
2024/02/16 00:59:04;;;;;;;1.70;1.60;;;13.40;99.90;;;;;;5033277;28;20186;-80
2024/02/16 01:01:30;;;;;;;1.90;1.60;;;13.40;99.90;;;;;;5034380;28;20424;-71
2024/02/16 01:03:56;;;;;;;4.50;2.23;;;13.50;99.90;;;;;;5034869;28;20432;-68
2024/02/16 01:06:22;;;;;;;3.13;1.87;;;13.50;99.90;;;;;;5032231;28;21232;-67
2024/02/16 01:08:47;;;;;;;2.97;1.70;;;13.40;99.90;;;;;;5033184;28;20181;-72
2024/02/16 01:11:13;;;;;;;1.80;1.53;;;13.40;99.90;;;;;;5034336;28;20247;-66
2024/02/16 01:13:39;;;;;;;2.60;1.70;;;13.40;99.90;;;;;;5035761;28;20246;-74
2024/02/16 01:16:06;;;;;;;1.83;1.50;;;13.40;99.90;;;;;;5033850;28;20583;-72
2024/02/16 01:18:32;;;;;;;2.03;1.83;;;13.40;99.90;;;;;;5035891;28;20436;-71
2024/02/16 01:20:58;;;;;;;2.37;1.57;;;13.40;99.90;;;;;;5032652;28;20428;-74
2024/02/16 01:23:24;;;;;;;2.33;1.90;;;13.40;99.90;;;;;;5035211;28;20429;-72
2024/02/16 01:25:50;;;;;;;2.67;1.53;;;13.30;99.90;;;;;;5035411;28;20955;-72
2024/02/16 01:28:16;;;;;;;3.10;1.83;;;13.30;99.90;;;;;;5032501;28;20221;-69
2024/02/16 01:30:41;;;;;;;3.27;2.20;;;13.40;99.90;;;;;;5034821;28;20189;-71
2024/02/16 01:33:07;;;;;;;2.57;1.53;;;13.40;99.90;;;;;;5034129;28;20190;-70
2024/02/16 01:35:33;;;;;;;2.80;1.50;;;13.40;99.90;;;;;;5034550;28;20194;-69
2024/02/16 01:38:01;;;;;;;5.10;2.73;;;13.30;99.90;;;;;;5034248;28;20428;-73
2024/02/16 01:40:27;;;;;;;3.53;1.70;;;13.30;99.90;;;;;;5034015;28;20494;-71
2024/02/16 01:42:53;;;;;;;2.50;1.40;;;13.30;99.90;;;;;;5034358;28;20455;-73
2024/02/16 01:45:20;;;;;;;3.23;1.70;;;13.40;99.90;;;;;;5033394;28;20425;-76
2024/02/16 01:47:49;;;;;;;3.63;1.80;;;13.40;99.90;;;;;;5034195;28;20522;-67
2024/02/16 01:50:16;;;;;;;2.00;1.40;;;13.40;99.90;;;;;;5032948;28;20455;-73
2024/02/16 01:52:43;;;;;;;4.97;2.03;;;13.40;99.90;;;;;;5037809;28;20436;-67
2024/02/16 01:55:10;;;;;;;4.30;1.90;;;13.40;99.90;;;;;;5041030;28;20427;-69
2024/02/16 01:57:38;;;;;;;3.17;1.60;;;13.40;99.90;;;;;;5039867;28;20815;-71
2024/02/16 02:00:07;;;;;;;2.57;1.70;;;13.40;99.90;;;;;;5033322;28;20418;-73
2024/02/16 02:02:35;;;;;;;2.70;2.00;;;13.40;99.90;;;;;;5035051;28;20431;-72
2024/02/16 02:05:01;;;;;;;3.80;1.93;;;13.40;99.90;;;;;;5033819;28;20439;-72
2024/02/16 02:07:27;;;;;;;2.03;1.50;;;13.40;99.90;;;;;;5025885;28;20598;-77
2024/02/16 02:09:53;;;;;;;2.63;1.77;;;13.40;99.90;;;;;;5028143;28;20979;-73
2024/02/16 02:12:19;;;;;;;2.70;1.70;;;13.40;99.90;;;;;;5030779;28;20694;-73
2024/02/16 02:14:46;;;;;;;2.70;1.80;;;13.40;99.90;;;;;;5035122;28;20460;-76
2024/02/16 02:17:12;;;;;;;2.93;1.60;;;13.40;99.90;;;;;;5034129;28;20425;-71
2024/02/16 02:19:38;;;;;;;2.47;1.50;;;13.40;99.90;;;;;;5034867;28;20443;-77
2024/02/16 02:22:04;;;;;;;2.50;1.90;;;13.40;99.90;;;;;;5034091;28;20426;-71
2024/02/16 02:24:30;;;;;;;3.03;1.77;;;13.40;99.90;;;;;;5033798;28;20433;-76
2024/02/16 02:26:57;;;;;;;2.80;1.73;;;13.40;99.90;;;;;;5034651;28;20260;-75
2024/02/16 02:29:23;;;;;;;4.40;1.80;;;13.40;99.90;;;;;;5033998;28;20447;-81
2024/02/16 02:31:49;;;;;;;7.97;1.77;;;13.40;99.90;;;;;;5033691;28;20426;-74
2024/02/16 02:34:15;;;;;;;2.50;1.87;;;13.40;99.90;;;;;;5034152;28;20504;-74
2024/02/16 02:36:41;;;;;;;2.30;1.57;;;13.40;99.90;;;;;;5034262;28;20459;-70
2024/02/16 02:39:07;;;;;;;2.60;1.57;;;13.40;99.90;;;;;;5034746;28;20200;-73
2024/02/16 02:41:32;;;;;;;4.80;2.53;;;13.40;99.90;;;;;;5034078;28;20190;-73
2024/02/16 02:43:58;;;;;;;2.30;1.50;;;13.50;99.90;;;;;;5034766;28;20448;-72
2024/02/16 02:46:24;;;;;;;1.90;1.70;;;13.50;99.90;;;;;;5032099;28;20208;-75
2024/02/16 02:48:51;;;;;;;2.13;1.87;;;13.40;99.90;;;;;;5033610;28;20442;-73
2024/02/16 02:51:17;;;;;;;3.17;1.63;;;13.40;99.90;;;;;;5033950;28;20178;-76
2024/02/16 02:53:43;;;;;;;1.60;1.50;;;13.40;99.90;;;;;;5034443;28;20495;-75
2024/02/16 02:56:08;;;;;;;4.47;1.80;;;13.40;99.90;;;;;;5033893;28;21948;-67
2024/02/16 02:58:34;;;;;;;2.90;1.63;;;13.50;99.90;;;;;;5032627;28;20424;-79
2024/02/16 03:01:00;;;;;;;2.43;1.70;;;13.50;99.90;;;;;;5037656;28;20659;-74
2024/02/16 03:03:26;;;;;;;4.17;2.37;;;13.50;99.90;;;;;;5039826;28;20187;-66
2024/02/16 03:05:52;;;;;;;3.33;1.97;;;13.50;99.90;;;;;;5041258;28;20287;-64
2024/02/16 03:08:17;;;;;;;1.80;1.60;;;13.50;99.90;;;;;;5039621;28;20272;-68
2024/02/16 03:10:44;;;;;;;2.40;1.90;;;13.50;99.90;;;;;;5033451;28;20528;-77
2024/02/16 03:13:12;;;;;;;2.70;1.47;;;13.40;99.90;;;;;;5033484;28;20182;-73
2024/02/16 03:15:38;;;;;;;2.97;2.00;;;13.50;99.90;;;;;;5033614;28;20507;-67
2024/02/16 03:18:08;;;;;;;5.23;2.00;;;13.40;99.90;;;;;;5040673;28;20520;-68
2024/02/16 03:20:34;;;;;;;2.73;1.80;;;13.40;99.90;;;;;;5045565;28;20437;-66
2024/02/16 03:23:00;;;;;;;3.83;1.80;;;13.40;99.90;;;;;;5036084;28;20421;-70
2024/02/16 03:25:26;;;;;;;2.70;1.57;;;13.40;99.90;;;;;;5033816;28;20431;-75
2024/02/16 03:27:53;;;;;;;2.60;2.07;;;13.40;99.90;;;;;;5032441;28;20592;-69
2024/02/16 03:30:19;;;;;;;3.10;2.00;;;13.40;99.90;;;;;;5032866;28;20174;-68
2024/02/16 03:32:54;;;;;;;2.83;1.53;;;13.40;99.90;;;;;;5032863;28;20501;-71
2024/02/16 03:35:20;;;;;;;3.40;2.50;;;13.40;99.90;;;;;;5032540;28;20424;-65
2024/02/16 03:37:46;;;;;;;4.07;1.90;;;13.40;99.90;;;;;;5033229;28;20466;-69
2024/02/16 03:40:12;;;;;;;1.63;1.50;;;13.40;99.90;;;;;;5033388;28;20181;-72
2024/02/16 03:42:41;;;;;;;2.23;2.00;;;13.40;99.90;;;;;;5032517;28;20425;-71
2024/02/16 03:45:07;;;;;;;3.93;2.07;;;13.40;99.90;;;;;;5035708;28;20461;-72
2024/02/16 03:47:33;;;;;;;2.63;2.10;;;13.40;99.90;;;;;;5036211;28;20507;-77
2024/02/16 03:49:59;;;;;;;4.60;1.67;;;13.50;99.90;;;;;;5036225;28;20510;-77
2024/02/16 03:52:24;;;;;;;1.90;1.23;;;13.50;99.90;;;;;;5037158;28;20190;-76
2024/02/16 03:54:51;;;;;;;3.00;1.93;;;13.50;99.90;;;;;;5036097;28;20193;-77
2024/02/16 03:57:17;;;;;;;2.43;1.80;;;13.50;99.90;;;;;;5036539;28;20175;-72
2024/02/16 03:59:46;;;;;;;2.80;1.73;;;13.40;99.90;;;;;;5035197;28;21088;-81
2024/02/16 04:02:15;;;;;;;2.13;1.93;;;13.40;99.90;;;;;;5036223;28;20181;-72
2024/02/16 04:04:41;;;;;;;3.00;1.90;;;13.40;99.90;;;;;;5035509;28;20428;-78
2024/02/16 04:07:08;;;;;;;3.43;1.87;;;13.40;99.90;;;;;;5036286;28;21138;-72
2024/02/16 04:09:36;;;;;;;3.03;1.80;;;13.40;99.90;;;;;;5036467;28;20794;-72
2024/02/16 04:12:03;;;;;;;2.00;1.80;;;13.40;99.90;;;;;;5036213;28;20420;-79
2024/02/16 04:14:30;;;;;;;2.90;2.00;;;13.40;99.90;;;;;;5036075;28;20475;-74
2024/02/16 04:16:58;;;;;;;4.50;1.90;;;13.40;99.90;;;;;;5036195;28;20428;-68
2024/02/16 04:19:28;;;;;;;2.90;1.83;;;13.30;99.90;;;;;;5036801;28;20432;-69
2024/02/16 04:21:54;;;;;;;2.40;1.70;;;13.30;99.90;;;;;;5036707;28;20417;-76
2024/02/16 04:24:20;;;;;;;4.70;2.00;;;13.30;99.90;;;;;;5036401;28;20417;-75
2024/02/16 04:26:46;;;;;;;1.77;1.63;;;13.30;99.90;;;;;;5035381;28;20461;-74
2024/02/16 04:29:11;;;;;;;2.10;1.73;;;13.40;99.90;;;;;;5035306;28;20241;-71
2024/02/16 04:31:42;;;;;;;3.77;1.87;;;13.40;99.90;;;;;;5035826;28;20218;-68
2024/02/16 04:34:08;;;;;;;6.43;2.47;;;13.40;99.90;;;;;;5035927;28;20174;-70
2024/02/16 04:36:34;;;;;;;3.03;1.77;;;13.40;99.90;;;;;;5035571;28;20911;-67
2024/02/16 04:39:00;;;;;;;3.47;1.83;;;13.40;99.90;;;;;;5035664;28;20420;-71
2024/02/16 04:41:26;;;;;;;2.90;2.00;;;13.30;99.90;;;;;;5038229;28;20187;-71
2024/02/16 04:43:53;;;;;;;2.60;2.10;;;13.40;99.90;;;;;;5046322;28;20189;-69
2024/02/16 04:46:19;;;;;;;2.50;1.90;;;13.40;99.90;;;;;;5042510;28;20232;-69
2024/02/16 04:48:44;;;;;;;4.00;1.83;;;13.40;99.90;;;;;;5036120;28;21253;-74
2024/02/16 04:51:11;;;;;;;1.90;1.80;;;13.30;99.90;;;;;;5034147;28;20471;-72
2024/02/16 04:53:37;;;;;;;1.97;1.87;;;13.30;99.90;;;;;;5035542;28;20254;-74
2024/02/16 04:56:02;;;;;;;1.90;1.80;;;13.40;99.90;;;;;;5034987;28;20428;-73
2024/02/16 04:58:28;;;;;;;4.97;2.13;;;13.40;99.90;;;;;;5035831;28;20190;-76
2024/02/16 05:00:54;;;;;;;2.30;1.80;;;13.40;99.90;;;;;;5035114;28;20193;-72
2024/02/16 05:03:20;;;;;;;2.30;2.10;;;13.40;99.90;;;;;;5035622;28;21832;-71
2024/02/16 05:05:45;;;;;;;2.90;2.07;;;13.40;99.90;;;;;;5034575;28;20185;-68
2024/02/16 05:08:11;;;;;;;2.70;1.80;;;13.50;99.90;;;;;;5035200;28;20217;-75
2024/02/16 05:10:37;;;;;;;2.10;1.90;;;13.40;99.90;;;;;;5034239;28;20510;-71
2024/02/16 05:13:04;;;;;;;4.93;2.93;;;13.40;99.90;;;;;;5035282;28;20431;-78
2024/02/16 05:15:31;;;;;;;2.53;2.33;;;13.40;99.90;;;;;;5035026;28;20209;-76
2024/02/16 05:17:57;;;;;;;2.50;1.70;;;13.40;99.90;;;;;;5034331;28;20468;-76
2024/02/16 05:20:23;;;;;;;2.60;2.10;;;13.40;99.90;;;;;;5034704;28;20433;-68
2024/02/16 05:22:49;;;;;;;3.43;2.23;;;13.40;99.90;;;;;;5034676;28;20429;-74
2024/02/16 05:25:17;;;;;;;3.77;1.67;;;13.40;99.90;;;;;;5034930;28;20439;-71
2024/02/16 05:27:43;;;;;;;2.43;1.80;;;13.40;99.90;;;;;;5033053;28;20214;-71
2024/02/16 05:30:15;;;;;;;3.10;2.67;;;13.40;99.90;;;;;;5033655;28;20413;-71
2024/02/16 05:32:42;;;;;;;2.30;2.00;;;13.40;99.90;;;;;;5033160;28;20429;-75
2024/02/16 05:35:12;;;;;;;3.07;2.40;;;13.40;99.90;;;;;;5035232;28;20433;-67
2024/02/16 05:37:53;;;;;;;6.43;2.47;;;13.40;99.90;;;;;;5033874;28;20436;-71
2024/02/16 05:40:21;;;;;;;3.47;1.90;;;13.40;99.90;;;;;;5034152;28;21187;-69
2024/02/16 05:42:47;;;;;;;3.50;1.93;;;13.40;99.90;;;;;;5033339;28;20456;-67
2024/02/16 05:45:14;;;;;;;4.27;2.30;;;13.40;99.90;;;;;;5034629;28;20977;-71
2024/02/16 05:47:46;;;;;;;4.73;2.00;;;13.40;99.90;;;;;;5033762;28;20473;-67
2024/02/16 05:50:12;;;;;;;2.83;1.90;;;13.30;99.90;;;;;;5034296;28;20422;-74
2024/02/16 05:52:39;;;;;;;3.40;2.17;;;13.30;99.90;;;;;;5033598;28;20424;-73
2024/02/16 05:55:09;;;;;;;2.83;2.10;;;13.30;99.90;;;;;;5034468;28;20413;-67
2024/02/16 05:57:35;;;;;;;2.37;2.13;;;13.30;99.90;;;;;;5029513;28;20444;-69
2024/02/16 06:00:03;;;;;;;2.30;2.10;;;13.30;99.90;;;;;;5014968;28;20422;-70
2024/02/16 06:02:30;;;;;;;4.70;2.47;;;13.30;99.90;;;;;;5031606;28;20433;-67
2024/02/16 06:04:56;;;;;;;4.57;2.47;;;13.40;99.90;;;;;;5032285;28;21112;-75
2024/02/16 06:07:22;;;;;;;2.80;2.27;;;13.40;99.90;;;;;;5036950;28;20472;-68
2024/02/16 06:09:48;;;;;;;4.47;2.30;;;13.40;99.90;;;;;;5042794;28;20208;-68
2024/02/16 06:12:15;;;;;;;4.20;2.50;;;13.30;99.90;;;;;;5034077;28;20221;-74
2024/02/16 06:14:41;;;;;;;2.67;2.47;;;13.30;99.90;;;;;;5033185;28;20417;-70
2024/02/16 06:17:08;;;;;;;5.37;2.23;;;13.30;99.90;;;;;;5033301;28;20513;-72
2024/02/16 06:19:34;;;;;;;5.10;2.20;;;13.30;99.90;;;;;;5034130;28;20438;-76
2024/02/16 06:21:59;;;;;;;3.40;2.07;;;13.30;99.90;;;;;;5030908;28;20488;-71
2024/02/16 06:24:25;;;;;;;3.50;2.23;;;13.30;99.90;;;;;;5033912;28;20428;-75
2024/02/16 06:26:54;;;;;;;6.03;2.50;;;13.30;99.90;;;;;;5031242;28;20225;-77
2024/02/16 06:29:20;;;;;;;3.57;2.87;;;13.30;99.90;;;;;;5044658;28;20502;-67
2024/02/16 06:31:49;;;;;;;5.60;2.37;;;13.30;99.90;;;;;;5033046;28;20422;-69
2024/02/16 06:34:15;;;;;;;3.67;2.30;;;13.20;99.90;;;;;;5033204;28;20505;-70
2024/02/16 06:36:42;;;;;;;4.83;2.77;;;13.30;99.90;;;;;;5033317;28;20550;-65
2024/02/16 06:39:09;;;;;;;4.53;2.47;;;13.30;99.90;;;;;;5032666;28;20455;-81
2024/02/16 06:41:35;;;;;;;4.00;2.80;;;13.30;99.90;;;;;;5032938;28;20571;-68
2024/02/16 06:44:01;;;;;;;2.77;2.47;;;13.30;99.90;;;;;;5032286;28;21214;-70
2024/02/16 06:46:29;;;;;;;3.57;2.27;;;13.30;99.90;;;;;;5032113;28;20644;-69
2024/02/16 06:48:56;;;;;;;5.27;2.50;;;13.30;99.90;;;;;;5032563;28;20186;-75
2024/02/16 06:51:23;;;;;;;3.07;2.10;;;13.30;99.90;;;;;;5030590;28;20472;-76
2024/02/16 06:53:49;;;;;;;2.60;2.17;;;13.30;99.90;;;;;;5029613;28;20444;-73
2024/02/16 06:56:15;;;;;;;3.57;2.10;;;13.30;99.90;;;;;;5026172;28;21093;-77
2024/02/16 06:58:41;;;;;;;3.67;2.77;;;13.30;99.90;;;;;;5030778;28;20243;-69
2024/02/16 07:01:08;;;;;;;3.17;2.20;;;13.30;99.90;;;;;;5031443;28;20217;-67
2024/02/16 07:03:36;;;;;;;4.83;2.30;;;13.30;99.90;;;;;;5029590;28;20929;-74
2024/02/16 07:06:03;;;;;;;4.53;2.50;;;13.30;99.90;;;;;;5028302;28;20445;-71
2024/02/16 07:08:29;;;;;;;3.87;2.60;;;13.30;99.90;;;;;;5027603;28;20974;-68
2024/02/16 07:10:55;;;;;;;4.00;2.30;;;13.30;99.90;;;;;;5031371;28;20433;-69
2024/02/16 07:13:22;;;;;;;2.80;2.27;;;13.30;99.90;;;;;;5033153;28;20186;-70
2024/02/16 07:15:48;;;;;;;2.53;2.17;;;13.30;99.90;;;;;;5032164;28;20438;-65
2024/02/16 07:18:15;;;;;;;2.80;2.10;;;13.30;99.90;;;;;;5030853;28;20421;-67
2024/02/16 07:20:40;;;;;;;3.67;2.10;;;13.40;99.90;;;;;;5032889;28;20244;-67
2024/02/16 07:23:06;;;;;;;3.20;2.70;;;13.40;99.90;;;;;;5032682;28;20425;-71
2024/02/16 07:25:32;;;;;;;4.70;2.80;;;13.40;99.90;;;;;;5029609;28;20185;-70
2024/02/16 07:27:58;;;;;;;3.30;2.40;;;13.40;99.90;;;;;;5033126;28;20461;-73
2024/02/16 07:30:23;;;;;;;3.00;2.47;;;13.30;99.90;;;;;;5033961;28;20189;-74
2024/02/16 07:32:50;;;;;;;3.90;3.00;;;13.40;99.90;;;;;;5035150;28;20182;-71
2024/02/16 07:35:16;;;;;;;4.87;2.70;;;13.40;99.90;;;;;;5032843;28;20197;-70
2024/02/16 07:37:43;;;;;;;4.83;2.50;;;13.40;99.90;;;;;;5031012;28;20890;-68
2024/02/16 07:40:09;;;;;;;4.90;2.63;;;13.50;99.90;;;;;;5031482;28;20509;-68
2024/02/16 07:42:42;;;;;;;2.90;2.53;;;13.50;99.90;;;;;;5031497;28;20544;-71
2024/02/16 07:45:09;;;;;;;4.00;2.80;;;13.50;99.90;;;;;;5030779;28;20456;-68
2024/02/16 07:47:35;;;;;;;2.70;2.33;;;13.50;99.90;;;;;;5031214;28;20480;-69
2024/02/16 07:50:01;;;;;;;3.43;2.77;;;13.50;99.90;;;;;;5030981;28;20425;-70
2024/02/16 07:52:26;;;;;;;3.80;2.23;;;13.60;99.90;;;;;;5031171;28;20174;-69
2024/02/16 07:54:52;;;;;;;2.57;2.30;;;13.60;99.90;;;;;;5062874;28;20423;-68
2024/02/16 07:57:18;;;;;;;3.10;2.20;;;13.60;99.90;;;;;;5030460;28;20189;-72
2024/02/16 07:59:43;;;;;;;4.73;2.70;;;13.60;99.90;;;;;;5031675;28;20547;-75
2024/02/16 08:02:15;;;;;;;2.73;2.23;;;13.60;99.90;;;;;;5030921;28;20186;-73
2024/02/16 08:04:47;;;;;;;3.13;2.37;;;13.60;99.90;;;;;;5032102;28;20181;-68
2024/02/16 08:07:13;;;;;;;3.90;2.20;;;13.60;99.90;;;;;;5030248;28;20488;-71
2024/02/16 08:09:39;;;;;;;5.47;3.10;;;13.60;99.90;;;;;;5031393;28;20420;-70
2024/02/16 08:12:06;;;;;;;4.10;2.30;;;13.60;99.90;;;;;;5031221;28;20551;-72
2024/02/16 08:14:35;;;;;;;4.43;2.70;;;13.60;99.90;;;;;;5029961;28;20439;-69
2024/02/16 08:17:01;;;;;;;4.43;2.70;;;13.70;99.90;;;;;;5029440;28;20836;-70
2024/02/16 08:19:38;;;;;;;2.60;2.00;;;13.70;99.90;;;;;;5030840;28;20437;-69
2024/02/16 08:22:05;;;;;;;3.30;3.00;;;13.80;99.90;;;;;;5031287;28;20647;-70
2024/02/16 08:24:37;;;;;;;2.90;2.30;;;13.80;99.90;;;;;;5031123;28;20424;-71
2024/02/16 08:27:06;;;;;;;3.60;2.47;;;13.80;99.90;;;;;;5030880;28;20464;-70
2024/02/16 08:29:32;;;;;;;5.00;2.50;;;13.80;99.90;;;;;;5029898;28;21167;-77
2024/02/16 08:31:57;;;;;;;2.90;2.20;;;13.90;99.90;;;;;;5033654;28;20413;-71
2024/02/16 08:34:26;;;;;;;3.67;2.40;;;13.90;99.90;;;;;;5034405;28;20177;-70
2024/02/16 08:36:51;;;;;;;4.93;2.50;;;13.90;99.90;;;;;;5034518;28;20719;-73
2024/02/16 08:39:19;;;;;;;2.90;2.13;;;13.90;99.90;;;;;;5033672;28;20431;-71
2024/02/16 08:41:48;;;;;;;4.33;2.43;;;13.90;99.90;;;;;;5034095;28;20636;-69
2024/02/16 08:44:13;;;;;;;3.97;2.53;;;13.90;99.90;;;;;;5033689;28;20553;-68
2024/02/16 08:46:40;;;;;;;3.30;2.40;;;13.90;99.90;;;;;;5033507;28;20543;-68
2024/02/16 08:49:06;;;;;;;6.20;2.50;;;14.00;99.90;;;;;;5034965;28;20424;-70
2024/02/16 08:51:33;;;;;;;4.63;2.50;;;14.00;99.90;;;;;;5031751;28;20874;-69
2024/02/16 08:53:59;;;;;;;5.63;2.40;;;14.00;99.90;;;;;;5033997;28;20421;-72
2024/02/16 08:56:25;;;;;;;3.20;2.40;;;13.90;99.90;;;;;;5032942;28;20436;-71
2024/02/16 08:58:50;;;;;;;3.80;2.10;;;14.00;99.90;;;;;;5035251;28;20459;-71
2024/02/16 09:01:16;;;;;;;3.03;2.53;;;14.00;99.90;;;;;;5033258;28;20260;-75
2024/02/16 09:03:42;;;;;;;6.93;2.80;;;13.90;99.90;;;;;;5034394;28;20186;-76
2024/02/16 09:06:08;;;;;;;3.90;2.57;;;14.00;99.90;;;;;;5032147;28;20183;-69
2024/02/16 09:08:35;;;;;;;4.70;3.10;;;14.00;99.90;;;;;;5031584;28;20519;-71
2024/02/16 09:11:05;;;;;;;4.63;2.33;;;14.00;99.90;;;;;;5032389;28;20249;-68
2024/02/16 09:13:35;;;;;;;3.50;2.80;;;14.10;99.90;;;;;;5031505;28;21240;-78
2024/02/16 09:16:03;;;;;;;3.33;2.60;;;14.10;99.90;;;;;;5031447;28;21547;-69
2024/02/16 09:18:29;;;;;;;4.37;2.50;;;14.10;99.90;;;;;;5031343;28;20440;-67
2024/02/16 09:20:55;;;;;;;3.90;2.63;;;14.10;99.90;;;;;;5034499;28;20428;-70
2024/02/16 09:23:21;;;;;;;5.23;2.80;;;14.10;99.90;;;;;;5032553;28;20512;-71
2024/02/16 09:25:48;;;;;;;4.90;2.53;;;14.10;99.90;;;;;;5034798;28;20437;-71
2024/02/16 09:28:14;;;;;;;4.40;2.77;;;14.20;99.90;;;;;;5031960;28;20209;-71
2024/02/16 09:30:39;;;;;;;5.10;2.77;;;14.20;99.90;;;;;;5034420;28;20922;-73
2024/02/16 09:33:07;;;;;;;3.40;2.60;;;14.20;99.90;;;;;;5034270;28;20257;-76
2024/02/16 09:35:32;;;;;;;3.93;2.70;;;14.20;99.90;;;;;;5032444;28;20296;-69
2024/02/16 09:37:58;;;;;;;4.53;3.10;;;14.20;99.90;;;;;;5034594;28;21032;-65
2024/02/16 09:40:24;;;;;;;8.27;2.90;;;14.20;99.90;;;;;;5032308;28;20181;-69
2024/02/16 09:42:50;;;;;;;3.90;2.80;;;14.20;99.90;;;;;;5033721;28;20178;-72
2024/02/16 09:45:16;;;;;;;3.80;2.80;;;14.20;99.90;;;;;;5033918;28;20802;-76
2024/02/16 09:47:49;;;;;;;4.10;2.63;;;14.30;99.90;;;;;;5033402;28;20476;-73
2024/02/16 09:50:15;;;;;;;3.37;2.60;;;14.30;99.90;;;;;;5064657;28;20430;-75
2024/02/16 09:52:42;;;;;;;3.47;2.80;;;14.30;99.90;;;;;;5033816;28;20988;-70
2024/02/16 09:55:12;;;;;;;5.47;3.20;;;14.30;99.90;;;;;;5034655;28;20423;-68
2024/02/16 09:57:38;;;;;;;3.80;2.73;;;14.40;99.90;;;;;;5032890;28;20471;-72
2024/02/16 10:00:04;;;;;;;5.57;2.70;;;14.40;99.90;;;;;;5033302;28;20425;-77
2024/02/16 10:02:50;;;;;;;7.30;2.80;;;14.40;99.90;;;;;;5048096;28;20194;-71
2024/02/16 10:05:22;;;;;;;5.27;2.67;;;14.40;99.90;;;;;;5033455;28;21235;-73
2024/02/16 10:07:48;;;;;;;7.00;3.47;;;14.40;99.90;;;;;;5032509;28;20472;-71
2024/02/16 10:10:24;;;;;;;4.20;3.47;;;14.40;99.90;;;;;;5032781;28;20424;-74
2024/02/16 10:12:50;;;;;;;5.20;2.73;;;14.50;99.90;;;;;;5033681;28;20239;-72
2024/02/16 10:15:21;;;;;;;3.70;2.43;;;14.50;99.90;;;;;;5033686;28;20975;-73
2024/02/16 10:18:04;;;;;;;5.40;2.80;;;14.50;99.90;;;;;;5033002;28;20432;-74
2024/02/16 10:20:30;;;;;;;5.23;3.30;;;14.60;99.90;;;;;;5032739;28;20417;-68
2024/02/16 10:23:03;;;;;;;4.67;3.10;;;14.60;99.90;;;;;;5034170;28;20888;-71
2024/02/16 10:25:29;;;;;;;3.80;3.10;;;14.60;99.90;;;;;;5033534;28;20482;-70
2024/02/16 10:27:57;;;;;;;8.23;3.40;;;14.60;99.90;;;;;;5031054;28;21354;-69
2024/02/16 10:30:28;;;;;;;4.93;3.00;;;14.60;99.90;;;;;;5032439;28;20271;-75
2024/02/16 10:32:53;;;;;;;4.37;2.90;;;14.60;99.90;;;;;;5026566;28;20468;-73
2024/02/16 10:35:20;;;;;;;5.00;2.73;;;14.60;99.90;;;;;;5013280;28;20449;-73
2024/02/16 10:37:47;;;;;;;7.70;3.23;;;14.70;99.90;;;;;;5031735;28;20260;-67
2024/02/16 10:40:17;;;;;;;2.90;2.60;;;14.60;99.90;;;;;;5033120;28;20954;-67
2024/02/16 10:42:45;;;;;;;5.40;3.77;;;14.60;99.90;;;;;;5032150;28;20436;-71
2024/02/16 10:45:15;;;;;;;6.90;3.27;;;14.60;99.90;;;;;;5032809;28;20782;-65
2024/02/16 10:47:41;;;;;;;4.70;2.80;;;14.70;99.90;;;;;;5031437;28;20468;-75
2024/02/16 10:50:09;;;;;;;5.90;4.00;;;14.70;99.90;;;;;;5033408;28;20432;-70
2024/02/16 10:52:36;;;;;;;4.93;3.00;;;14.70;99.90;;;;;;5029838;28;20435;-68
2024/02/16 10:55:04;;;;;;;6.20;3.00;;;14.80;99.90;;;;;;5032942;28;20418;-73
2024/02/16 10:57:31;;;;;;;4.43;3.07;;;14.80;99.90;;;;;;5031747;28;20433;-68
2024/02/16 10:59:59;;;;;;;4.73;3.13;;;14.80;99.90;;;;;;5032985;28;20417;-67
2024/02/16 11:02:25;;;;;;;6.50;3.53;;;14.80;99.90;;;;;;5031222;28;20430;-73
2024/02/16 11:04:53;;;;;;;5.80;3.27;;;14.80;99.90;;;;;;5032311;28;20448;-78
2024/02/16 11:07:20;;;;;;;5.90;3.20;;;14.90;99.90;;;;;;5032081;28;20470;-71
2024/02/16 11:09:46;;;;;;;3.97;3.10;;;14.90;99.90;;;;;;5031706;28;21188;-72
2024/02/16 11:12:15;;;;;;;4.67;3.43;;;14.90;99.90;;;;;;5032893;28;20516;-67
2024/02/16 11:14:55;;;;;;;4.90;3.10;;;14.90;99.90;;;;;;5032058;28;20478;-68
2024/02/16 11:17:22;;;;;;;5.57;2.87;;;14.90;99.90;;;;;;5031555;28;21010;-71
2024/02/16 11:19:49;;;;;;;3.20;2.70;;;14.90;99.90;;;;;;5032263;28;20523;-73
2024/02/16 11:22:19;;;;;;;6.70;3.40;;;15.00;99.90;;;;;;5031376;28;20428;-65
2024/02/16 11:24:47;;;;;;;5.80;3.07;;;15.00;99.90;;;;;;5031108;28;20455;-76
2024/02/16 11:27:15;;;;;;;9.30;3.37;;;15.00;99.90;;;;;;5030404;28;20527;-75
2024/02/16 11:29:41;;;;;;;7.87;3.33;;;14.90;99.90;;;;;;5030126;28;20559;-72
2024/02/16 11:32:07;;;;;;;6.50;3.97;;;14.90;99.90;;;;;;5032018;28;20997;-67
2024/02/16 11:34:34;;;;;;;11.37;3.87;;;15.00;99.90;;;;;;5032122;28;22868;-71
2024/02/16 11:37:01;;;;;;;6.30;3.23;;;15.00;99.90;;;;;;5014712;28;21316;-73
2024/02/16 11:39:31;;;;;;;5.50;3.40;;;15.00;99.90;;;;;;5015366;28;20775;-74
2024/02/16 11:42:11;;;;;;;4.80;3.10;;;15.00;99.90;;;;;;5031222;28;20523;-72
2024/02/16 11:44:42;;;;;;;10.37;3.43;;;15.00;99.90;;;;;;5031904;28;20956;-73
2024/02/16 11:47:17;;;;;;;6.63;3.57;;;15.00;99.90;;;;;;5030917;28;21288;-67
2024/02/16 11:49:43;;;;;;;8.23;3.90;;;14.90;99.90;;;;;;5032785;28;20425;-73
2024/02/16 11:52:10;;;;;;;5.17;3.50;;;15.00;99.90;;;;;;5032138;28;20420;-66
2024/02/16 11:54:36;;;;;;;6.50;3.33;;;14.90;99.90;;;;;;5031841;28;20273;-69
2024/02/16 11:57:03;;;;;;;6.60;3.50;;;15.00;99.90;;;;;;5031029;28;20928;-77
2024/02/16 11:59:31;;;;;;;4.23;3.60;;;14.90;99.90;;;;;;5031948;28;20492;-73
2024/02/16 12:01:59;;;;;;;11.20;3.97;;;14.90;99.90;;;;;;5031471;28;20786;-72
2024/02/16 12:04:29;;;;;;;6.03;3.73;;;14.90;99.90;;;;;;5031662;28;20817;-70
2024/02/16 12:07:00;;;;;;;7.13;4.07;;;14.90;99.90;;;;;;5034666;28;20575;-73
2024/02/16 12:09:27;;;;;;;5.50;3.73;;;14.90;99.90;;;;;;5035427;28;20424;-68
2024/02/16 12:11:54;;;;;;;6.23;3.87;;;14.90;99.90;;;;;;5034952;28;20520;-73
2024/02/16 12:14:22;;;;;;;9.60;3.67;;;14.90;99.90;;;;;;5036276;28;20477;-69
2024/02/16 12:16:52;;;;;;;4.00;3.40;;;14.90;99.90;;;;;;5033991;28;20953;-66
2024/02/16 12:19:22;;;;;;;6.97;4.13;;;14.90;99.90;;;;;;5035362;28;20420;-73
2024/02/16 12:21:57;;;;;;;5.57;3.87;;;14.80;99.90;;;;;;5034141;28;20420;-71
2024/02/16 12:24:23;;;;;;;5.37;3.83;;;14.80;99.90;;;;;;5035538;28;20470;-70
2024/02/16 12:26:49;;;;;;;5.70;3.50;;;14.80;99.90;;;;;;5034852;28;20800;-69
2024/02/16 12:29:16;;;;;;;6.00;4.10;;;14.80;99.90;;;;;;5034836;28;20447;-73
2024/02/16 12:31:43;;;;;;;4.87;3.27;;;14.80;99.90;;;;;;5034748;28;20554;-70
2024/02/16 12:34:09;;;;;;;5.87;3.30;;;14.80;99.90;;;;;;5035521;28;20428;-74
2024/02/16 12:36:35;;;;;;;4.07;3.50;;;14.80;99.90;;;;;;5034761;28;20495;-67
2024/02/16 12:39:03;;;;;;;8.20;3.63;;;14.80;99.90;;;;;;5034019;28;20182;-68
2024/02/16 12:41:30;;;;;;;5.40;3.50;;;14.80;99.90;;;;;;5035067;28;20432;-74
2024/02/16 12:43:55;;;;;;;5.60;3.80;;;14.80;99.90;;;;;;5035632;28;20433;-70